Time;durP1;ratioP1;P1;durP2;ratioP2;P2;SDS_P1;SDS_P2;PMS_P1;PMS_P2;Temp;Humidity;BMP_temperature;BMP_pressure;BME280_temperature;BME280_humidity;BME280_pressure;Samples;Min_cycle;Max_cycle;Signal;HPM_P1;HPM_P2
2021/04/17 00:02:28;;;;;;;4.68;1.92;;;2.50;98.20;;;;;;5056566;28;20048;-88
2021/04/17 00:04:56;;;;;;;5.15;1.20;;;2.50;98.30;;;;;;5056250;28;20079;-88
2021/04/17 00:07:25;;;;;;;3.25;1.55;;;2.50;98.20;;;;;;5056289;28;20420;-88
2021/04/17 00:09:52;;;;;;;2.80;1.10;;;2.60;98.20;;;;;;5056381;28;20486;-88
2021/04/17 00:12:21;;;;;;;5.50;1.70;;;2.60;98.20;;;;;;5056210;28;20429;-88
2021/04/17 00:14:50;;;;;;;2.75;1.30;;;2.60;98.20;;;;;;5056063;28;20033;-88
2021/04/17 00:17:20;;;;;;;4.53;1.55;;;2.60;98.20;;;;;;5056318;28;20021;-88
2021/04/17 00:19:51;;;;;;;3.95;1.45;;;2.60;98.30;;;;;;5056843;28;20028;-88
2021/04/17 00:22:19;;;;;;;4.13;1.50;;;2.60;98.60;;;;;;5057261;28;20028;-88
2021/04/17 00:24:47;;;;;;;3.47;1.35;;;2.60;98.70;;;;;;5038377;28;20037;-88
2021/04/17 00:27:16;;;;;;;4.60;1.58;;;2.50;98.80;;;;;;5021763;28;20025;-88
2021/04/17 00:29:44;;;;;;;5.72;1.55;;;2.50;98.90;;;;;;5020655;28;20037;-88
2021/04/17 00:32:12;;;;;;;3.22;1.38;;;2.50;99.00;;;;;;5020775;28;20107;-88
2021/04/17 00:34:39;;;;;;;2.72;1.33;;;2.60;99.00;;;;;;5020405;28;20052;-88
2021/04/17 00:37:08;;;;;;;3.35;1.17;;;2.60;99.10;;;;;;5038309;28;20022;-88
2021/04/17 00:39:35;;;;;;;2.70;1.30;;;2.60;99.00;;;;;;5019568;28;20032;-88
2021/04/17 00:42:03;;;;;;;3.40;1.40;;;2.60;99.00;;;;;;5019585;28;20033;-88
2021/04/17 00:44:34;;;;;;;2.10;1.30;;;2.70;99.10;;;;;;5037158;28;20026;-88
2021/04/17 00:47:06;;;;;;;4.07;1.50;;;2.70;99.20;;;;;;5019046;28;20388;-88
2021/04/17 00:49:33;;;;;;;5.47;1.30;;;2.70;99.20;;;;;;5019391;28;20025;-88
2021/04/17 00:52:01;;;;;;;5.03;1.88;;;2.70;99.20;;;;;;5019404;28;20026;-88
2021/04/17 00:54:29;;;;;;;4.57;2.13;;;2.70;99.40;;;;;;5019377;28;20028;-88
2021/04/17 00:56:57;;;;;;;3.95;1.00;;;2.60;99.40;;;;;;5020217;28;20030;-88
2021/04/17 00:59:25;;;;;;;5.88;1.23;;;2.60;99.60;;;;;;5019884;28;20124;-88
2021/04/17 01:01:51;;;;;;;4.00;1.65;;;2.60;99.70;;;;;;5021124;28;20018;-88
2021/04/17 01:04:42;;;;;;;3.90;1.27;;;2.60;99.80;;;;;;5037861;28;20022;-88
2021/04/17 01:07:33;;;;;;;3.50;1.70;;;2.60;99.80;;;;;;5020111;28;20333;-88
2021/04/17 01:10:07;;;;;;;3.40;1.50;;;2.60;99.80;;;;;;5020456;28;20037;-89
2021/04/17 01:12:55;;;;;;;4.13;1.10;;;2.60;99.80;;;;;;5020166;28;20029;-88
2021/04/17 01:15:27;;;;;;;3.33;1.30;;;2.60;99.80;;;;;;5020141;28;20026;-88
2021/04/17 01:17:56;;;;;;;2.63;1.15;;;2.50;99.90;;;;;;5020144;28;20025;-89
2021/04/17 01:20:35;;;;;;;4.00;1.40;;;2.50;99.90;;;;;;5019634;28;20032;-88
2021/04/17 01:23:24;;;;;;;6.75;2.08;;;2.50;99.90;;;;;;5036709;28;20056;-89
2021/04/17 01:26:18;;;;;;;3.83;1.42;;;2.40;99.90;;;;;;5037026;28;20029;-89
2021/04/17 01:28:52;;;;;;;2.28;1.02;;;2.40;99.90;;;;;;5019351;28;20421;-89
2021/04/17 01:31:24;;;;;;;2.03;1.02;;;2.40;99.90;;;;;;5019335;28;20452;-88
2021/04/17 01:33:56;;;;;;;2.78;1.38;;;2.30;99.90;;;;;;5018960;28;20409;-88
2021/04/17 01:36:26;;;;;;;2.63;1.25;;;2.30;99.90;;;;;;5036518;28;20013;-88
2021/04/17 01:39:02;;;;;;;3.53;1.23;;;2.30;99.90;;;;;;5019526;28;20024;-89
2021/04/17 01:41:33;;;;;;;2.58;1.17;;;2.30;99.90;;;;;;5037012;28;20025;-89
2021/04/17 01:44:10;;;;;;;2.13;1.10;;;2.20;99.90;;;;;;5019870;28;20036;-88
2021/04/17 01:46:49;;;;;;;2.88;1.35;;;2.20;99.90;;;;;;5019877;28;20443;-88
2021/04/17 01:49:18;;;;;;;4.80;1.88;;;2.10;99.90;;;;;;5037785;28;20030;-89
2021/04/17 01:51:46;;;;;;;4.95;1.20;;;2.00;99.90;;;;;;5020586;28;20029;-88
2021/04/17 01:54:28;;;;;;;3.75;1.50;;;2.00;99.90;;;;;;5020742;28;20022;-88
2021/04/17 01:57:01;;;;;;;2.60;1.33;;;2.00;99.90;;;;;;5019941;28;20022;-88
2021/04/17 01:59:35;;;;;;;4.88;1.20;;;2.00;99.90;;;;;;5020605;28;20028;-88
2021/04/17 02:02:04;;;;;;;4.22;1.70;;;2.00;99.90;;;;;;5022692;28;20025;-88
2021/04/17 02:04:37;;;;;;;4.63;1.60;;;2.00;99.90;;;;;;5039764;28;20029;-88
2021/04/17 02:07:05;;;;;;;3.20;1.42;;;2.00;99.90;;;;;;5022293;28;20033;-88
2021/04/17 02:09:32;;;;;;;5.45;1.50;;;2.00;99.90;;;;;;5022145;28;20028;-88
2021/04/17 02:12:00;;;;;;;2.42;1.25;;;2.00;99.90;;;;;;5022661;28;20064;-89
2021/04/17 02:14:29;;;;;;;6.53;2.00;;;2.00;99.90;;;;;;5022160;28;20338;-89
2021/04/17 02:17:25;;;;;;;4.55;1.55;;;2.00;99.90;;;;;;5022131;28;20022;-88
2021/04/17 02:20:10;;;;;;;2.70;1.13;;;2.00;99.90;;;;;;5021952;28;20079;-88
2021/04/17 02:22:37;;;;;;;5.05;1.60;;;1.90;99.90;;;;;;5021942;28;20073;-88
2021/04/17 02:25:06;;;;;;;4.35;1.48;;;1.90;99.90;;;;;;5023524;28;20033;-89
2021/04/17 02:27:33;;;;;;;3.15;1.40;;;1.80;99.90;;;;;;5023078;28;20295;-88
2021/04/17 02:30:01;;;;;;;6.20;1.48;;;1.70;99.90;;;;;;5022753;28;20025;-88
2021/04/17 02:32:29;;;;;;;3.78;1.58;;;1.70;99.90;;;;;;5040097;28;20026;-88
2021/04/17 02:34:57;;;;;;;4.57;1.35;;;1.70;99.90;;;;;;5039877;28;20080;-88
2021/04/17 02:37:26;;;;;;;3.72;1.52;;;1.70;99.90;;;;;;5022404;28;20021;-89
2021/04/17 02:39:53;;;;;;;4.40;1.90;;;1.60;99.90;;;;;;5022815;28;20368;-88
2021/04/17 02:42:22;;;;;;;5.07;1.20;;;1.60;99.90;;;;;;5022394;28;20026;-88
2021/04/17 02:44:49;;;;;;;2.83;1.20;;;1.60;99.90;;;;;;5022342;28;20406;-88
2021/04/17 02:47:17;;;;;;;7.80;1.67;;;1.50;99.90;;;;;;5021499;28;20328;-88
2021/04/17 02:49:45;;;;;;;2.63;1.50;;;1.50;99.90;;;;;;5021663;28;20029;-88
2021/04/17 02:52:13;;;;;;;4.03;1.60;;;1.50;99.90;;;;;;5021868;28;20064;-88
2021/04/17 02:54:40;;;;;;;4.32;1.77;;;1.40;99.90;;;;;;5021240;28;20036;-88
2021/04/17 02:57:08;;;;;;;4.57;1.88;;;1.30;99.90;;;;;;5021153;28;20029;-88
2021/04/17 02:59:36;;;;;;;7.35;1.90;;;1.20;99.90;;;;;;5021237;28;20029;-88
2021/04/17 03:02:04;;;;;;;7.00;1.95;;;1.20;99.90;;;;;;5021306;28;20048;-88
2021/04/17 03:04:32;;;;;;;2.40;1.20;;;1.10;99.90;;;;;;5021121;28;20026;-88
2021/04/17 03:06:59;;;;;;;4.18;1.70;;;1.10;99.90;;;;;;5022443;28;20417;-88
2021/04/17 03:09:27;;;;;;;3.28;1.38;;;1.00;99.90;;;;;;5021892;28;20030;-88
2021/04/17 03:11:55;;;;;;;4.43;1.75;;;1.00;99.90;;;;;;5021672;28;20078;-89
2021/04/17 03:14:23;;;;;;;5.70;1.60;;;0.90;99.90;;;;;;5021566;28;20022;-89
2021/04/17 03:16:50;;;;;;;5.68;2.03;;;0.80;99.90;;;;;;5021915;28;20022;-89
2021/04/17 03:19:18;;;;;;;4.55;1.75;;;0.80;99.90;;;;;;5022180;28;20151;-88
2021/04/17 03:21:46;;;;;;;5.35;1.80;;;0.70;99.90;;;;;;5021970;28;20104;-89
2021/04/17 03:24:13;;;;;;;4.25;1.73;;;0.60;99.90;;;;;;5049425;28;20044;-89
2021/04/17 03:26:42;;;;;;;6.50;1.50;;;0.60;99.90;;;;;;5058558;28;20021;-88
2021/04/17 03:29:10;;;;;;;4.00;1.60;;;0.50;99.90;;;;;;5057343;28;20024;-88
2021/04/17 03:31:37;;;;;;;4.00;1.42;;;0.50;99.90;;;;;;5058169;28;20111;-88
2021/04/17 03:34:06;;;;;;;2.42;1.25;;;0.50;99.90;;;;;;5057125;28;20316;-89
2021/04/17 03:36:33;;;;;;;6.25;1.90;;;0.40;99.90;;;;;;5056994;28;20017;-88
2021/04/17 03:39:02;;;;;;;4.05;1.40;;;0.40;99.90;;;;;;5056943;28;20025;-89
2021/04/17 03:41:30;;;;;;;2.58;1.30;;;0.30;99.90;;;;;;5058416;28;20025;-88
2021/04/17 03:43:58;;;;;;;3.75;1.77;;;0.30;99.90;;;;;;5057220;28;20032;-88
2021/04/17 03:46:26;;;;;;;3.60;1.48;;;0.30;99.90;;;;;;5057226;28;20176;-88
2021/04/17 03:48:53;;;;;;;4.07;1.33;;;0.30;99.90;;;;;;5058535;28;20033;-88
2021/04/17 03:51:21;;;;;;;3.13;1.27;;;0.20;99.90;;;;;;5057615;28;20112;-88
2021/04/17 03:53:49;;;;;;;3.40;1.17;;;0.20;99.90;;;;;;5057782;28;20447;-88
2021/04/17 03:56:16;;;;;;;6.05;1.98;;;0.20;99.90;;;;;;5057637;28;20324;-88
2021/04/17 03:58:44;;;;;;;4.10;1.40;;;0.20;99.90;;;;;;5057455;28;20116;-89
2021/04/17 04:01:11;;;;;;;5.10;1.50;;;0.20;99.90;;;;;;5057652;28;20044;-89
2021/04/17 04:03:42;;;;;;;4.05;1.88;;;0.20;99.90;;;;;;5057352;28;20032;-89
2021/04/17 04:06:10;;;;;;;3.22;1.23;;;0.20;99.90;;;;;;5057038;28;20504;-89
2021/04/17 04:08:37;;;;;;;2.45;1.08;;;0.10;99.90;;;;;;5056819;28;20320;-89
2021/04/17 04:11:05;;;;;;;4.18;1.40;;;0.10;99.90;;;;;;5056565;28;20060;-89
2021/04/17 04:13:33;;;;;;;3.22;1.25;;;0.10;99.90;;;;;;5056333;28;20074;-89
2021/04/17 04:16:01;;;;;;;3.15;1.52;;;0.10;99.90;;;;;;5056442;28;20025;-88
2021/04/17 04:18:28;;;;;;;3.17;1.30;;;0.10;99.90;;;;;;5057487;28;20021;-88
2021/04/17 04:20:55;;;;;;;2.75;1.10;;;0.10;99.90;;;;;;5056209;28;20029;-89
2021/04/17 04:23:23;;;;;;;4.63;1.17;;;0.10;99.90;;;;;;5047640;28;20057;-89
2021/04/17 04:25:50;;;;;;;4.13;1.15;;;0.10;99.90;;;;;;5019737;28;20022;-89
2021/04/17 04:28:17;;;;;;;3.55;1.60;;;0.10;99.90;;;;;;5037471;28;20036;-89
2021/04/17 04:30:46;;;;;;;3.17;1.20;;;0.10;99.90;;;;;;5020662;28;20025;-89
2021/04/17 04:33:13;;;;;;;2.65;1.35;;;0.10;99.90;;;;;;5020681;28;20080;-88
2021/04/17 04:35:41;;;;;;;5.43;1.30;;;0.10;99.90;;;;;;5020549;28;20345;-88
2021/04/17 04:38:09;;;;;;;2.67;1.30;;;0.10;99.90;;;;;;5021410;28;20028;-89
2021/04/17 04:40:36;;;;;;;2.58;1.30;;;0.10;99.90;;;;;;5020546;28;20028;-89
2021/04/17 04:43:04;;;;;;;4.38;1.17;;;0.10;99.90;;;;;;5020961;28;20022;-89
2021/04/17 04:45:32;;;;;;;4.57;1.52;;;0.20;99.90;;;;;;5020643;28;20030;-88
2021/04/17 04:48:00;;;;;;;4.75;1.40;;;0.20;99.90;;;;;;5019788;28;20032;-89
2021/04/17 04:50:28;;;;;;;5.38;1.52;;;0.30;99.90;;;;;;5020532;28;20033;-89
2021/04/17 04:52:56;;;;;;;3.20;1.20;;;0.40;99.90;;;;;;5019417;28;20307;-89
2021/04/17 04:55:24;;;;;;;6.28;1.25;;;0.40;99.90;;;;;;5019612;28;20117;-89
2021/04/17 04:57:52;;;;;;;4.57;1.35;;;0.50;99.90;;;;;;5019446;28;20112;-89
2021/04/17 05:00:19;;;;;;;3.78;1.48;;;0.60;99.90;;;;;;5019362;28;20112;-90
2021/04/17 05:02:47;;;;;;;2.58;1.10;;;0.60;99.90;;;;;;5019671;28;20026;-89
2021/04/17 05:05:15;;;;;;;2.72;1.20;;;0.70;99.90;;;;;;5019413;28;20025;-89
2021/04/17 05:07:43;;;;;;;3.83;1.20;;;0.70;99.90;;;;;;5020130;28;20030;-90
2021/04/17 05:10:11;;;;;;;10.95;2.30;;;0.80;99.90;;;;;;5020152;28;20496;-88
2021/04/17 05:12:39;;;;;;;2.33;1.20;;;0.80;99.90;;;;;;5021047;28;20033;-93
2021/04/17 05:15:07;;;;;;;2.47;1.10;;;0.80;99.90;;;;;;5020184;28;20036;-91
2021/04/17 05:17:35;;;;;;;3.95;1.10;;;0.90;99.90;;;;;;5020152;28;20072;-91
2021/04/17 05:20:03;;;;;;;4.25;1.95;;;0.90;99.90;;;;;;5021249;28;20057;-92
2021/04/17 05:22:31;;;;;;;3.08;1.20;;;1.00;99.90;;;;;;5020334;28;20021;-92
2021/04/17 05:24:59;;;;;;;4.35;1.35;;;1.10;99.90;;;;;;5020262;28;20057;-92
2021/04/17 05:27:27;;;;;;;4.28;1.20;;;1.10;99.90;;;;;;5020084;28;20485;-92
2021/04/17 05:29:54;;;;;;;4.68;1.35;;;1.20;99.90;;;;;;5019385;28;20325;-93
2021/04/17 05:32:23;;;;;;;3.70;1.38;;;1.30;99.90;;;;;;5019227;28;20392;-92
2021/04/17 05:34:50;;;;;;;3.65;1.45;;;1.40;99.90;;;;;;5022330;28;20025;-92
2021/04/17 05:37:17;;;;;;;3.03;1.48;;;1.50;99.90;;;;;;5023211;28;20028;-92
2021/04/17 05:39:44;;;;;;;4.40;1.65;;;1.60;99.90;;;;;;5022877;28;20021;-93
2021/04/17 05:42:12;;;;;;;3.70;1.70;;;1.70;99.90;;;;;;5022906;28;20021;-92
2021/04/17 05:44:39;;;;;;;3.55;1.48;;;1.80;99.90;;;;;;5022935;28;20033;-92
2021/04/17 05:47:07;;;;;;;5.70;1.98;;;1.90;99.90;;;;;;5023101;28;20059;-87
2021/04/17 05:49:35;;;;;;;2.60;1.00;;;2.00;99.90;;;;;;5022281;28;20032;-78
2021/04/17 05:52:03;;;;;;;3.20;1.30;;;2.10;99.90;;;;;;5041235;28;20049;-78
2021/04/17 05:54:31;;;;;;;2.97;1.30;;;2.20;99.90;;;;;;5022987;28;20425;-79
2021/04/17 05:56:59;;;;;;;8.43;1.80;;;2.30;99.90;;;;;;5022983;28;20365;-79
2021/04/17 05:59:27;;;;;;;4.57;1.70;;;2.30;99.90;;;;;;5040619;28;20029;-79
2021/04/17 06:01:54;;;;;;;3.15;1.48;;;2.40;99.90;;;;;;5023059;28;20021;-78
2021/04/17 06:04:22;;;;;;;4.88;1.63;;;2.40;99.90;;;;;;5040603;28;20018;-78
2021/04/17 06:06:50;;;;;;;2.60;1.27;;;2.40;99.90;;;;;;5040862;28;20029;-78
2021/04/17 06:09:19;;;;;;;5.65;1.85;;;2.50;99.90;;;;;;5040635;28;20029;-78
2021/04/17 06:11:48;;;;;;;3.05;1.52;;;2.50;99.90;;;;;;5039342;28;20436;-75
2021/04/17 06:14:16;;;;;;;3.70;1.60;;;2.50;99.90;;;;;;5021696;28;20353;-79
2021/04/17 06:16:43;;;;;;;5.03;1.90;;;2.60;99.90;;;;;;5021912;28;20025;-81
2021/04/17 06:19:11;;;;;;;11.27;2.28;;;2.70;99.90;;;;;;5039167;28;20049;-77
2021/04/17 06:21:39;;;;;;;2.90;1.13;;;2.80;99.90;;;;;;5039130;28;20087;-79
2021/04/17 06:24:07;;;;;;;4.97;1.80;;;2.90;99.90;;;;;;5039164;28;20386;-80
2021/04/17 06:26:36;;;;;;;6.13;1.95;;;3.00;99.90;;;;;;5021646;28;20021;-85
2021/04/17 06:29:03;;;;;;;4.30;1.67;;;3.10;99.90;;;;;;5039185;28;20321;-80
2021/04/17 06:31:31;;;;;;;6.45;1.88;;;3.20;99.90;;;;;;5021559;28;20029;-89
2021/04/17 06:33:59;;;;;;;5.30;1.95;;;3.30;99.90;;;;;;5022280;28;20021;-87
2021/04/17 06:36:27;;;;;;;11.32;3.25;;;3.40;99.90;;;;;;5022218;28;20033;-82
2021/04/17 06:38:54;;;;;;;4.05;1.90;;;3.50;99.90;;;;;;5022128;28;20357;-81
2021/04/17 06:41:23;;;;;;;5.50;1.63;;;3.60;99.90;;;;;;5039594;28;20024;-80
2021/04/17 06:43:51;;;;;;;4.05;1.67;;;3.70;99.90;;;;;;5039757;28;20032;-82
2021/04/17 06:46:20;;;;;;;3.97;1.98;;;3.80;99.90;;;;;;5039113;28;20045;-83
2021/04/17 06:48:48;;;;;;;4.57;2.10;;;3.90;99.90;;;;;;5039603;28;20396;-79
2021/04/17 06:51:18;;;;;;;6.35;2.15;;;4.00;99.90;;;;;;5039691;28;20028;-80
2021/04/17 06:53:47;;;;;;;3.63;1.88;;;4.10;99.90;;;;;;5038481;28;20028;-76
2021/04/17 06:56:14;;;;;;;6.20;1.77;;;4.20;99.90;;;;;;5021062;28;20440;-84
2021/04/17 06:58:42;;;;;;;4.88;1.95;;;4.30;99.90;;;;;;5038769;28;20033;-85
2021/04/17 07:01:09;;;;;;;4.85;2.28;;;4.40;99.90;;;;;;5038830;28;20029;-82
2021/04/17 07:03:37;;;;;;;7.82;2.17;;;4.50;99.90;;;;;;5020958;28;20326;-81
2021/04/17 07:06:05;;;;;;;7.25;2.38;;;4.60;99.90;;;;;;5020884;28;20029;-82
2021/04/17 07:08:32;;;;;;;10.40;3.45;;;4.70;99.90;;;;;;5038228;28;20021;-81
2021/04/17 07:11:00;;;;;;;12.13;3.80;;;4.80;99.90;;;;;;5038383;28;20024;-88
2021/04/17 07:13:28;;;;;;;7.63;3.10;;;4.90;99.90;;;;;;5020936;28;20030;-86
2021/04/17 07:16:07;;;;;;;9.27;3.45;;;5.00;99.90;;;;;;5039099;28;20083;-86
2021/04/17 07:18:39;;;;;;;8.93;3.58;;;5.20;99.90;;;;;;5021374;28;20022;-86
2021/04/17 07:21:16;;;;;;;6.68;3.33;;;5.30;99.90;;;;;;5039273;28;20028;-86
2021/04/17 07:23:45;;;;;;;29.50;13.15;;;5.40;99.80;;;;;;5038905;28;20042;-82
2021/04/17 07:26:18;;;;;;;13.63;6.15;;;5.50;99.60;;;;;;5038746;28;20052;-77
2021/04/17 07:29:00;;;;;;;8.90;4.57;;;5.60;98.60;;;;;;5021172;28;20034;-82
2021/04/17 07:31:30;;;;;;;16.05;5.93;;;5.80;98.00;;;;;;5038950;28;20075;-86
2021/04/17 07:34:12;;;;;;;10.38;4.15;;;5.90;97.60;;;;;;5020235;28;20120;-78
2021/04/17 07:36:54;;;;;;;9.68;4.30;;;6.00;97.00;;;;;;5020026;28;20053;-75
2021/04/17 07:39:33;;;;;;;11.25;3.88;;;6.20;96.90;;;;;;5020334;28;20089;-89
2021/04/17 07:42:11;;;;;;;15.63;4.78;;;6.30;96.60;;;;;;5020357;28;20059;-89
2021/04/17 07:44:43;;;;;;;8.20;3.95;;;6.40;96.00;;;;;;5020656;28;20056;-91
2021/04/17 07:47:11;;;;;;;11.35;4.20;;;6.60;95.60;;;;;;5020341;28;20032;-91
2021/04/17 07:49:40;;;;;;;9.30;4.40;;;6.70;95.60;;;;;;5020126;28;20086;-85
2021/04/17 07:52:15;;;;;;;9.57;3.70;;;6.80;95.60;;;;;;5020296;28;20082;-90
2021/04/17 07:55:04;;;;;;;7.47;3.58;;;7.00;95.00;;;;;;5037479;28;20025;-90
2021/04/17 07:57:33;;;;;;;8.82;3.58;;;7.10;93.80;;;;;;5021121;28;20033;-92
2021/04/17 08:00:05;;;;;;;8.63;3.47;;;7.30;92.90;;;;;;5020967;28;20037;-78
2021/04/17 08:02:34;;;;;;;7.13;3.85;;;7.40;93.10;;;;;;5038366;28;20449;-92
2021/04/17 08:05:03;;;;;;;8.18;3.53;;;7.60;93.00;;;;;;5021337;28;20022;-83
2021/04/17 08:07:33;;;;;;;8.30;3.15;;;7.70;91.00;;;;;;5020493;28;20041;-84
2021/04/17 08:10:03;;;;;;;8.18;2.80;;;7.80;90.20;;;;;;5020478;28;20132;-87
2021/04/17 08:12:35;;;;;;;10.07;3.25;;;7.90;88.10;;;;;;5020748;28;20021;-89
2021/04/17 08:15:06;;;;;;;10.43;3.65;;;8.00;85.80;;;;;;5020476;28;20030;-92
2021/04/17 08:17:38;;;;;;;12.35;3.05;;;8.10;83.70;;;;;;5019982;28;20029;-91
2021/04/17 08:20:08;;;;;;;9.68;3.33;;;8.10;83.40;;;;;;5019531;28;20499;-86
2021/04/17 08:22:37;;;;;;;11.77;2.85;;;8.20;82.70;;;;;;5036465;28;20034;-87
2021/04/17 08:25:06;;;;;;;5.53;2.47;;;8.20;82.00;;;;;;5019509;28;20438;-85
2021/04/17 08:27:36;;;;;;;6.35;2.72;;;8.30;79.30;;;;;;5037093;28;20136;-89
2021/04/17 08:30:09;;;;;;;9.35;3.13;;;8.30;78.60;;;;;;5019978;28;20353;-85
2021/04/17 08:32:46;;;;;;;9.73;3.88;;;8.40;78.10;;;;;;5037176;28;20053;-90
2021/04/17 08:35:24;;;;;;;9.20;2.90;;;8.40;78.10;;;;;;5019465;28;20038;-77
2021/04/17 08:37:56;;;;;;;6.93;2.80;;;8.40;78.60;;;;;;5019512;28;20428;-80
2021/04/17 08:40:45;;;;;;;6.47;2.92;;;8.50;77.60;;;;;;5037894;28;20025;-91
2021/04/17 08:43:19;;;;;;;7.35;3.08;;;8.60;76.50;;;;;;5020550;28;20022;-90
2021/04/17 08:46:18;;;;;;;10.20;3.58;;;8.60;76.60;;;;;;5020758;28;20150;-90
2021/04/17 08:48:47;;;;;;;5.78;3.30;;;8.70;76.40;;;;;;5028347;28;20111;-83
2021/04/17 08:51:29;;;;;;;14.57;5.03;;;8.80;76.30;;;;;;5020376;28;20033;-90
2021/04/17 08:54:03;;;;;;;8.55;2.88;;;8.90;75.80;;;;;;5036870;28;20022;-91
2021/04/17 08:56:49;;;;;;;6.95;2.75;;;9.00;75.50;;;;;;5019256;28;20022;-94
2021/04/17 08:59:34;;;;;;;10.32;3.25;;;9.10;76.80;;;;;;5036705;28;20014;-81
2021/04/17 09:02:08;;;;;;;6.88;3.40;;;9.30;75.60;;;;;;5019109;28;20022;-82
2021/04/17 09:04:57;;;;;;;6.90;2.78;;;9.40;75.30;;;;;;5036637;28;20417;-90
2021/04/17 09:07:29;;;;;;;5.30;2.75;;;9.50;74.10;;;;;;5019162;28;20037;-88
2021/04/17 09:10:17;;;;;;;5.38;2.42;;;9.50;73.30;;;;;;5022511;28;20559;-84
2021/04/17 09:12:45;;;;;;;9.25;3.03;;;9.50;72.50;;;;;;5040926;28;20039;-88
2021/04/17 09:15:13;;;;;;;7.85;3.00;;;9.50;72.70;;;;;;5041414;28;20036;-79
2021/04/17 09:17:44;;;;;;;7.97;2.88;;;9.50;72.40;;;;;;5023564;28;20025;-80
2021/04/17 09:20:30;;;;;;;9.93;4.28;;;9.60;72.40;;;;;;5007538;28;20030;-78
2021/04/17 09:22:58;;;;;;;5.93;3.53;;;9.60;71.60;;;;;;5041186;28;20373;-80
2021/04/17 09:25:39;;;;;;;6.78;2.85;;;9.60;72.30;;;;;;5023370;28;20029;-80
2021/04/17 09:28:07;;;;;;;7.00;3.05;;;9.70;70.10;;;;;;5040812;28;20029;-80
2021/04/17 09:30:35;;;;;;;9.40;2.50;;;9.80;70.00;;;;;;5023100;28;20079;-85
2021/04/17 09:33:04;;;;;;;5.90;2.55;;;9.90;70.30;;;;;;5040609;28;20025;-85
2021/04/17 09:35:36;;;;;;;7.28;2.05;;;10.00;69.80;;;;;;5022420;28;20056;-84
2021/04/17 09:38:16;;;;;;;3.85;2.03;;;10.10;68.00;;;;;;5040057;28;20026;-83
2021/04/17 09:40:54;;;;;;;6.00;2.45;;;10.30;68.00;;;;;;5039827;28;20021;-81
2021/04/17 09:43:35;;;;;;;6.57;2.05;;;10.40;67.10;;;;;;5022096;28;20095;-83
2021/04/17 09:46:17;;;;;;;14.77;3.17;;;10.60;65.30;;;;;;5022076;28;20032;-81
2021/04/17 09:48:46;;;;;;;5.70;1.50;;;10.70;65.00;;;;;;5021949;28;20026;-83
2021/04/17 09:51:26;;;;;;;4.20;1.83;;;10.90;63.70;;;;;;5039885;28;20029;-88
2021/04/17 09:54:07;;;;;;;7.43;1.77;;;11.00;63.20;;;;;;5022649;28;20112;-82
2021/04/17 09:56:36;;;;;;;6.00;1.75;;;11.20;61.90;;;;;;5022857;28;20018;-90
2021/04/17 09:59:12;;;;;;;4.30;1.70;;;11.40;61.00;;;;;;5023140;28;20075;-93
2021/04/17 10:02:00;;;;;;;5.00;1.90;;;11.50;60.30;;;;;;5023061;28;20021;-90
2021/04/17 10:04:46;;;;;;;4.18;1.50;;;11.60;58.90;;;;;;5023218;28;20092;-91
2021/04/17 10:07:14;;;;;;;3.03;1.27;;;11.60;59.50;;;;;;5023025;28;20120;-87
2021/04/17 10:09:43;;;;;;;5.50;1.58;;;11.60;59.40;;;;;;5041371;28;20017;-90
2021/04/17 10:12:13;;;;;;;5.72;1.90;;;11.70;59.70;;;;;;5022301;28;20025;-88
2021/04/17 10:14:41;;;;;;;3.97;1.73;;;11.80;58.50;;;;;;5022651;28;20033;-88
2021/04/17 10:17:09;;;;;;;3.28;1.25;;;11.80;58.70;;;;;;5022077;28;20021;-86
2021/04/17 10:19:37;;;;;;;7.95;2.03;;;11.80;57.60;;;;;;5020783;28;20032;-87
2021/04/17 10:22:06;;;;;;;5.20;1.85;;;11.90;57.90;;;;;;5021525;28;20434;-89
2021/04/17 10:24:42;;;;;;;3.58;1.65;;;11.90;57.80;;;;;;5053813;28;20101;-87
2021/04/17 10:27:14;;;;;;;6.57;1.90;;;11.80;58.40;;;;;;5058932;28;20492;-80
2021/04/17 10:29:46;;;;;;;7.88;1.80;;;11.80;57.60;;;;;;5057736;28;20128;-81
2021/04/17 10:32:14;;;;;;;6.47;2.45;;;11.70;58.40;;;;;;5057769;28;20337;-81
2021/04/17 10:34:51;;;;;;;3.80;2.00;;;11.70;58.70;;;;;;5059381;28;20021;-80
2021/04/17 10:37:26;;;;;;;9.48;2.10;;;11.70;58.30;;;;;;5059525;28;20095;-80
2021/04/17 10:40:18;;;;;;;7.57;1.83;;;11.70;58.30;;;;;;5058413;28;20298;-81
2021/04/17 10:42:53;;;;;;;3.72;1.25;;;11.70;58.00;;;;;;5059730;28;20024;-86
2021/04/17 10:45:30;;;;;;;5.50;1.60;;;11.80;56.70;;;;;;5058464;28;20032;-84
2021/04/17 10:48:21;;;;;;;5.97;1.60;;;11.80;57.50;;;;;;5059735;28;20325;-85
2021/04/17 10:51:07;;;;;;;4.78;1.65;;;11.80;56.60;;;;;;5058379;28;20025;-82
2021/04/17 10:53:37;;;;;;;4.50;1.50;;;11.60;57.30;;;;;;5058942;28;20021;-88
2021/04/17 10:56:15;;;;;;;4.15;1.33;;;11.50;57.40;;;;;;5057509;28;20059;-86
2021/04/17 10:58:44;;;;;;;6.90;1.70;;;11.40;57.70;;;;;;5057353;28;20298;-86
2021/04/17 11:01:14;;;;;;;5.18;1.58;;;11.20;57.50;;;;;;5057508;28;20115;-86
2021/04/17 11:03:51;;;;;;;7.40;2.22;;;11.00;58.50;;;;;;5057300;28;20111;-86
2021/04/17 11:06:21;;;;;;;4.40;1.60;;;10.90;58.50;;;;;;5057263;28;20029;-86
2021/04/17 11:08:51;;;;;;;10.13;1.95;;;10.90;60.10;;;;;;5058238;28;20108;-86
2021/04/17 11:11:23;;;;;;;8.63;2.35;;;11.10;60.60;;;;;;5057587;28;20375;-85
2021/04/17 11:14:00;;;;;;;5.78;1.83;;;11.40;59.50;;;;;;5057328;28;20071;-86
2021/04/17 11:16:50;;;;;;;5.57;2.28;;;11.70;59.30;;;;;;5058089;28;20366;-86
2021/04/17 11:19:35;;;;;;;2.97;1.48;;;12.00;58.50;;;;;;5058250;28;20063;-85
2021/04/17 11:22:24;;;;;;;8.25;2.05;;;12.20;57.00;;;;;;5058863;28;20366;-87
2021/04/17 11:24:58;;;;;;;5.43;1.65;;;12.50;57.70;;;;;;5057824;28;20441;-86
2021/04/17 11:27:30;;;;;;;7.95;2.60;;;12.60;56.50;;;;;;5057557;28;20028;-86
2021/04/17 11:29:58;;;;;;;7.32;2.42;;;12.80;56.50;;;;;;5057897;28;20025;-86
2021/04/17 11:32:29;;;;;;;9.20;4.15;;;12.90;57.20;;;;;;5057876;28;20029;-86
2021/04/17 11:34:58;;;;;;;5.55;2.30;;;13.10;57.40;;;;;;5056975;28;20075;-86
2021/04/17 11:37:30;;;;;;;6.25;2.83;;;13.30;56.30;;;;;;5057830;28;20092;-86
2021/04/17 11:39:58;;;;;;;7.43;2.08;;;13.30;56.10;;;;;;5057628;28;20025;-86
2021/04/17 11:42:27;;;;;;;6.45;2.45;;;13.30;56.20;;;;;;5056749;28;20024;-86
2021/04/17 11:44:57;;;;;;;6.18;2.22;;;13.30;55.70;;;;;;5056595;28;20021;-86
2021/04/17 11:47:26;;;;;;;6.32;3.05;;;13.30;55.60;;;;;;5056469;28;20051;-87
2021/04/17 11:49:54;;;;;;;6.55;3.25;;;13.30;55.70;;;;;;5057408;28;20020;-86
2021/04/17 11:52:21;;;;;;;7.85;3.25;;;13.30;56.20;;;;;;5056322;28;20116;-86
2021/04/17 11:54:50;;;;;;;7.90;3.42;;;13.40;56.10;;;;;;5056257;28;20033;-87
2021/04/17 11:57:18;;;;;;;7.20;2.83;;;13.30;56.70;;;;;;5057017;28;20039;-86
2021/04/17 11:59:46;;;;;;;12.93;4.22;;;13.10;56.90;;;;;;5057118;28;20025;-86
2021/04/17 12:02:14;;;;;;;7.18;2.72;;;12.80;57.70;;;;;;5056965;28;20024;-86
2021/04/17 12:04:42;;;;;;;7.97;2.70;;;12.70;58.30;;;;;;5057329;28;20086;-89
2021/04/17 12:07:10;;;;;;;7.40;2.83;;;12.80;59.20;;;;;;5057184;28;20029;-87
2021/04/17 12:09:38;;;;;;;7.88;2.33;;;12.90;59.50;;;;;;5058234;28;20035;-80
2021/04/17 12:12:06;;;;;;;12.48;2.92;;;13.10;58.70;;;;;;5056862;28;20321;-77
2021/04/17 12:14:35;;;;;;;6.28;3.50;;;13.10;58.40;;;;;;5057655;28;20021;-78
2021/04/17 12:17:03;;;;;;;6.78;3.40;;;13.10;58.70;;;;;;5055839;28;20110;-77
2021/04/17 12:19:32;;;;;;;8.88;4.13;;;13.20;58.30;;;;;;5055734;28;20028;-80
2021/04/17 12:22:00;;;;;;;5.43;2.67;;;13.20;58.40;;;;;;5056808;28;20021;-83
2021/04/17 12:24:27;;;;;;;10.02;3.17;;;13.40;58.90;;;;;;5055869;28;20053;-85
2021/04/17 12:26:55;;;;;;;7.32;2.97;;;13.50;58.30;;;;;;5055757;28;20032;-82
2021/04/17 12:29:24;;;;;;;8.10;2.95;;;13.50;57.60;;;;;;5055770;28;20036;-87
2021/04/17 12:31:52;;;;;;;7.07;2.83;;;13.50;58.20;;;;;;5056843;28;20384;-83
2021/04/17 12:34:20;;;;;;;9.57;2.90;;;13.40;58.40;;;;;;5056892;28;20052;-84
2021/04/17 12:36:48;;;;;;;6.57;2.75;;;13.40;59.30;;;;;;5055660;28;20032;-85
2021/04/17 12:39:15;;;;;;;7.60;3.47;;;13.40;59.30;;;;;;5057673;28;20317;-84
2021/04/17 12:41:43;;;;;;;8.30;2.92;;;13.40;59.60;;;;;;5057690;28;20428;-86
2021/04/17 12:44:11;;;;;;;8.57;2.90;;;13.50;58.60;;;;;;5055597;28;20037;-82
2021/04/17 12:46:40;;;;;;;9.35;2.40;;;13.60;57.80;;;;;;5057395;28;20021;-81
2021/04/17 12:49:08;;;;;;;9.95;4.40;;;13.80;57.80;;;;;;5056086;28;20051;-76
2021/04/17 12:51:36;;;;;;;5.43;2.55;;;13.90;57.40;;;;;;5057381;28;20021;-88
2021/04/17 12:54:04;;;;;;;6.90;2.92;;;14.00;57.10;;;;;;5056546;28;20112;-82
2021/04/17 12:56:32;;;;;;;8.52;3.15;;;14.20;57.20;;;;;;5055812;28;20443;-86
2021/04/17 12:59:00;;;;;;;6.18;2.53;;;14.20;57.10;;;;;;5056600;28;20029;-84
2021/04/17 13:01:28;;;;;;;5.68;2.35;;;14.30;56.30;;;;;;5056303;28;20028;-86
2021/04/17 13:03:56;;;;;;;6.80;3.00;;;14.20;56.50;;;;;;5055094;28;20021;-85
2021/04/17 13:06:25;;;;;;;4.40;2.33;;;14.10;56.90;;;;;;5056567;28;20024;-85
2021/04/17 13:08:53;;;;;;;3.90;1.70;;;14.10;58.00;;;;;;5056200;28;20021;-85
2021/04/17 13:11:20;;;;;;;5.43;2.20;;;14.10;58.10;;;;;;5055152;28;20025;-83
2021/04/17 13:13:49;;;;;;;9.10;3.47;;;14.20;58.20;;;;;;5056163;28;20021;-83